sensor_id;sensor_type;location;lat;lon;timestamp;P1;durP1;ratioP1;P2;durP2;ratioP2
19589;SDS011;12231;42.782;23.388;2023-06-14T00:01:16;5.07;;;3.22;;
19589;SDS011;12231;42.782;23.388;2023-06-14T00:03:41;6.10;;;3.70;;
19589;SDS011;12231;42.782;23.388;2023-06-14T00:06:07;3.45;;;3.15;;
19589;SDS011;12231;42.782;23.388;2023-06-14T00:08:32;6.18;;;3.55;;
19589;SDS011;12231;42.782;23.388;2023-06-14T00:10:58;4.60;;;3.10;;
19589;SDS011;12231;42.782;23.388;2023-06-14T00:13:23;5.28;;;3.67;;
19589;SDS011;12231;42.782;23.388;2023-06-14T00:15:49;3.97;;;2.88;;
19589;SDS011;12231;42.782;23.388;2023-06-14T00:18:14;9.20;;;3.80;;
19589;SDS011;12231;42.782;23.388;2023-06-14T00:20:41;5.50;;;3.35;;
19589;SDS011;12231;42.782;23.388;2023-06-14T00:23:07;5.93;;;2.92;;
19589;SDS011;12231;42.782;23.388;2023-06-14T00:25:33;9.23;;;4.15;;
19589;SDS011;12231;42.782;23.388;2023-06-14T00:27:58;6.30;;;3.60;;
19589;SDS011;12231;42.782;23.388;2023-06-14T00:30:24;8.98;;;4.22;;
19589;SDS011;12231;42.782;23.388;2023-06-14T00:32:50;4.97;;;3.40;;
19589;SDS011;12231;42.782;23.388;2023-06-14T00:35:16;4.35;;;3.67;;
19589;SDS011;12231;42.782;23.388;2023-06-14T00:37:41;3.58;;;3.25;;
19589;SDS011;12231;42.782;23.388;2023-06-14T00:40:07;5.15;;;3.72;;
19589;SDS011;12231;42.782;23.388;2023-06-14T00:42:33;3.00;;;2.55;;
19589;SDS011;12231;42.782;23.388;2023-06-14T00:44:59;10.43;;;3.92;;
19589;SDS011;12231;42.782;23.388;2023-06-14T00:47:25;6.68;;;3.63;;
19589;SDS011;12231;42.782;23.388;2023-06-14T00:49:51;8.05;;;4.13;;
19589;SDS011;12231;42.782;23.388;2023-06-14T00:52:18;4.55;;;3.33;;
19589;SDS011;12231;42.782;23.388;2023-06-14T00:54:44;4.72;;;4.28;;
19589;SDS011;12231;42.782;23.388;2023-06-14T00:57:10;3.90;;;3.42;;
19589;SDS011;12231;42.782;23.388;2023-06-14T00:59:38;3.53;;;3.22;;
19589;SDS011;12231;42.782;23.388;2023-06-14T01:02:08;7.38;;;4.60;;
19589;SDS011;12231;42.782;23.388;2023-06-14T01:04:33;5.78;;;3.55;;
19589;SDS011;12231;42.782;23.388;2023-06-14T01:07:05;6.28;;;4.50;;
19589;SDS011;12231;42.782;23.388;2023-06-14T01:12:29;4.53;;;3.08;;
19589;SDS011;12231;42.782;23.388;2023-06-14T01:15:00;6.40;;;4.00;;
19589;SDS011;12231;42.782;23.388;2023-06-14T01:17:27;6.65;;;4.00;;
19589;SDS011;12231;42.782;23.388;2023-06-14T01:19:57;7.55;;;4.13;;
19589;SDS011;12231;42.782;23.388;2023-06-14T01:22:28;15.85;;;4.10;;
19589;SDS011;12231;42.782;23.388;2023-06-14T01:24:53;7.97;;;3.83;;
19589;SDS011;12231;42.782;23.388;2023-06-14T01:27:22;6.47;;;4.00;;
19589;SDS011;12231;42.782;23.388;2023-06-14T01:29:50;7.57;;;4.72;;
19589;SDS011;12231;42.782;23.388;2023-06-14T01:32:17;8.68;;;3.72;;
19589;SDS011;12231;42.782;23.388;2023-06-14T01:34:44;5.63;;;3.92;;
19589;SDS011;12231;42.782;23.388;2023-06-14T01:37:10;8.80;;;3.72;;
19589;SDS011;12231;42.782;23.388;2023-06-14T01:39:36;5.40;;;3.60;;
19589;SDS011;12231;42.782;23.388;2023-06-14T01:42:02;5.43;;;3.53;;
19589;SDS011;12231;42.782;23.388;2023-06-14T01:44:28;4.88;;;3.78;;
19589;SDS011;12231;42.782;23.388;2023-06-14T01:46:55;6.32;;;3.22;;
19589;SDS011;12231;42.782;23.388;2023-06-14T01:49:21;5.82;;;3.60;;
19589;SDS011;12231;42.782;23.388;2023-06-14T01:51:47;5.20;;;4.15;;
19589;SDS011;12231;42.782;23.388;2023-06-14T01:54:12;5.93;;;3.95;;
19589;SDS011;12231;42.782;23.388;2023-06-14T01:56:38;7.68;;;3.72;;
19589;SDS011;12231;42.782;23.388;2023-06-14T01:59:03;4.93;;;3.83;;
19589;SDS011;12231;42.782;23.388;2023-06-14T02:01:28;4.07;;;3.70;;
19589;SDS011;12231;42.782;23.388;2023-06-14T02:03:54;6.97;;;3.80;;
19589;SDS011;12231;42.782;23.388;2023-06-14T02:06:19;5.88;;;3.45;;
19589;SDS011;12231;42.782;23.388;2023-06-14T02:08:45;5.53;;;3.63;;
19589;SDS011;12231;42.782;23.388;2023-06-14T02:11:10;5.85;;;3.85;;
19589;SDS011;12231;42.782;23.388;2023-06-14T02:13:35;6.55;;;3.38;;
19589;SDS011;12231;42.782;23.388;2023-06-14T02:16:01;7.38;;;4.18;;
19589;SDS011;12231;42.782;23.388;2023-06-14T02:18:26;7.85;;;4.18;;
19589;SDS011;12231;42.782;23.388;2023-06-14T02:20:52;3.80;;;3.50;;
19589;SDS011;12231;42.782;23.388;2023-06-14T02:23:17;6.70;;;4.10;;
19589;SDS011;12231;42.782;23.388;2023-06-14T02:25:43;6.47;;;3.72;;
19589;SDS011;12231;42.782;23.388;2023-06-14T02:28:10;4.70;;;3.40;;
19589;SDS011;12231;42.782;23.388;2023-06-14T02:30:35;4.45;;;3.47;;
19589;SDS011;12231;42.782;23.388;2023-06-14T02:33:01;5.93;;;3.22;;
19589;SDS011;12231;42.782;23.388;2023-06-14T02:35:27;4.85;;;2.83;;
19589;SDS011;12231;42.782;23.388;2023-06-14T02:37:52;3.05;;;2.83;;
19589;SDS011;12231;42.782;23.388;2023-06-14T02:40:18;6.10;;;3.67;;
19589;SDS011;12231;42.782;23.388;2023-06-14T02:42:44;5.18;;;3.20;;
19589;SDS011;12231;42.782;23.388;2023-06-14T02:45:10;8.68;;;3.83;;
19589;SDS011;12231;42.782;23.388;2023-06-14T02:47:36;3.90;;;3.22;;
19589;SDS011;12231;42.782;23.388;2023-06-14T02:50:01;5.05;;;3.60;;
19589;SDS011;12231;42.782;23.388;2023-06-14T02:52:27;4.03;;;3.63;;
19589;SDS011;12231;42.782;23.388;2023-06-14T02:54:53;4.22;;;3.33;;
19589;SDS011;12231;42.782;23.388;2023-06-14T02:57:19;5.07;;;3.53;;
19589;SDS011;12231;42.782;23.388;2023-06-14T02:59:45;7.45;;;3.35;;
19589;SDS011;12231;42.782;23.388;2023-06-14T03:02:10;5.90;;;3.20;;
19589;SDS011;12231;42.782;23.388;2023-06-14T03:04:36;4.07;;;3.67;;
19589;SDS011;12231;42.782;23.388;2023-06-14T03:07:02;3.08;;;2.78;;
19589;SDS011;12231;42.782;23.388;2023-06-14T03:09:37;5.50;;;3.33;;
19589;SDS011;12231;42.782;23.388;2023-06-14T03:12:04;3.28;;;3.03;;
19589;SDS011;12231;42.782;23.388;2023-06-14T03:14:31;3.85;;;2.92;;
19589;SDS011;12231;42.782;23.388;2023-06-14T03:16:57;3.28;;;2.97;;
19589;SDS011;12231;42.782;23.388;2023-06-14T03:19:23;3.70;;;3.35;;
19589;SDS011;12231;42.782;23.388;2023-06-14T03:21:50;4.88;;;3.40;;
19589;SDS011;12231;42.782;23.388;2023-06-14T03:24:15;5.35;;;2.63;;
19589;SDS011;12231;42.782;23.388;2023-06-14T03:26:44;3.00;;;2.53;;
19589;SDS011;12231;42.782;23.388;2023-06-14T03:29:10;3.85;;;3.17;;
19589;SDS011;12231;42.782;23.388;2023-06-14T03:31:35;4.70;;;3.38;;
19589;SDS011;12231;42.782;23.388;2023-06-14T03:34:01;4.07;;;3.20;;
19589;SDS011;12231;42.782;23.388;2023-06-14T03:36:27;3.80;;;3.13;;
19589;SDS011;12231;42.782;23.388;2023-06-14T03:38:55;3.50;;;2.75;;
19589;SDS011;12231;42.782;23.388;2023-06-14T03:41:21;5.78;;;2.75;;
19589;SDS011;12231;42.782;23.388;2023-06-14T03:43:46;7.10;;;2.88;;
19589;SDS011;12231;42.782;23.388;2023-06-14T03:46:12;5.82;;;3.85;;
19589;SDS011;12231;42.782;23.388;2023-06-14T03:48:37;3.55;;;3.05;;
19589;SDS011;12231;42.782;23.388;2023-06-14T03:51:03;6.18;;;3.33;;
19589;SDS011;12231;42.782;23.388;2023-06-14T03:53:29;3.33;;;2.70;;
19589;SDS011;12231;42.782;23.388;2023-06-14T03:55:55;3.03;;;2.72;;
19589;SDS011;12231;42.782;23.388;2023-06-14T03:58:22;2.95;;;2.67;;
19589;SDS011;12231;42.782;23.388;2023-06-14T04:00:48;4.47;;;2.50;;
19589;SDS011;12231;42.782;23.388;2023-06-14T04:03:13;3.78;;;3.28;;
19589;SDS011;12231;42.782;23.388;2023-06-14T04:05:40;3.47;;;2.97;;
19589;SDS011;12231;42.782;23.388;2023-06-14T04:08:07;3.72;;;3.10;;
19589;SDS011;12231;42.782;23.388;2023-06-14T04:10:35;2.55;;;2.35;;
19589;SDS011;12231;42.782;23.388;2023-06-14T04:13:01;3.10;;;2.65;;
19589;SDS011;12231;42.782;23.388;2023-06-14T04:15:27;3.53;;;2.75;;
19589;SDS011;12231;42.782;23.388;2023-06-14T04:17:55;3.40;;;3.10;;
19589;SDS011;12231;42.782;23.388;2023-06-14T04:20:22;3.40;;;3.10;;
19589;SDS011;12231;42.782;23.388;2023-06-14T04:22:50;4.43;;;2.65;;
19589;SDS011;12231;42.782;23.388;2023-06-14T04:25:15;3.50;;;3.20;;
19589;SDS011;12231;42.782;23.388;2023-06-14T04:27:42;5.90;;;3.72;;
19589;SDS011;12231;42.782;23.388;2023-06-14T04:30:08;3.53;;;2.90;;
19589;SDS011;12231;42.782;23.388;2023-06-14T04:32:34;4.93;;;3.60;;
19589;SDS011;12231;42.782;23.388;2023-06-14T04:35:03;4.82;;;3.83;;
19589;SDS011;12231;42.782;23.388;2023-06-14T04:37:29;4.78;;;3.60;;
19589;SDS011;12231;42.782;23.388;2023-06-14T04:39:55;4.35;;;3.70;;
19589;SDS011;12231;42.782;23.388;2023-06-14T04:42:21;5.38;;;3.70;;
19589;SDS011;12231;42.782;23.388;2023-06-14T04:44:50;4.35;;;3.95;;
19589;SDS011;12231;42.782;23.388;2023-06-14T04:47:16;8.07;;;4.47;;
19589;SDS011;12231;42.782;23.388;2023-06-14T04:49:42;4.93;;;4.28;;
19589;SDS011;12231;42.782;23.388;2023-06-14T04:52:07;7.78;;;4.68;;
19589;SDS011;12231;42.782;23.388;2023-06-14T04:54:35;7.60;;;4.35;;
19589;SDS011;12231;42.782;23.388;2023-06-14T04:57:04;7.80;;;5.43;;
19589;SDS011;12231;42.782;23.388;2023-06-14T04:59:30;4.25;;;2.97;;
19589;SDS011;12231;42.782;23.388;2023-06-14T05:01:58;7.10;;;5.35;;
19589;SDS011;12231;42.782;23.388;2023-06-14T05:04:25;6.38;;;5.15;;
19589;SDS011;12231;42.782;23.388;2023-06-14T05:06:51;9.10;;;5.72;;
19589;SDS011;12231;42.782;23.388;2023-06-14T05:09:19;9.82;;;5.95;;
19589;SDS011;12231;42.782;23.388;2023-06-14T05:11:46;8.93;;;6.60;;
19589;SDS011;12231;42.782;23.388;2023-06-14T05:14:12;10.23;;;6.55;;
19589;SDS011;12231;42.782;23.388;2023-06-14T05:16:38;10.25;;;6.80;;
19589;SDS011;12231;42.782;23.388;2023-06-14T05:19:04;10.18;;;6.47;;
19589;SDS011;12231;42.782;23.388;2023-06-14T05:21:30;7.72;;;5.72;;
19589;SDS011;12231;42.782;23.388;2023-06-14T05:23:57;9.07;;;6.30;;
19589;SDS011;12231;42.782;23.388;2023-06-14T05:26:22;8.68;;;5.72;;
19589;SDS011;12231;42.782;23.388;2023-06-14T05:28:50;8.77;;;5.47;;
19589;SDS011;12231;42.782;23.388;2023-06-14T05:31:17;9.00;;;6.10;;
19589;SDS011;12231;42.782;23.388;2023-06-14T05:33:43;9.43;;;6.75;;
19589;SDS011;12231;42.782;23.388;2023-06-14T05:36:08;10.48;;;7.43;;
19589;SDS011;12231;42.782;23.388;2023-06-14T05:38:33;11.63;;;6.75;;
19589;SDS011;12231;42.782;23.388;2023-06-14T05:40:59;10.07;;;7.65;;
19589;SDS011;12231;42.782;23.388;2023-06-14T05:43:24;14.00;;;7.97;;
19589;SDS011;12231;42.782;23.388;2023-06-14T05:45:50;12.88;;;7.18;;
19589;SDS011;12231;42.782;23.388;2023-06-14T05:48:15;11.55;;;7.80;;
19589;SDS011;12231;42.782;23.388;2023-06-14T05:50:40;11.00;;;8.32;;
19589;SDS011;12231;42.782;23.388;2023-06-14T05:53:06;12.82;;;8.35;;
19589;SDS011;12231;42.782;23.388;2023-06-14T05:55:31;12.70;;;8.27;;
19589;SDS011;12231;42.782;23.388;2023-06-14T05:57:57;13.20;;;7.55;;
19589;SDS011;12231;42.782;23.388;2023-06-14T06:00:22;13.45;;;7.72;;
19589;SDS011;12231;42.782;23.388;2023-06-14T06:02:48;12.32;;;8.05;;
19589;SDS011;12231;42.782;23.388;2023-06-14T06:05:13;12.23;;;8.23;;
19589;SDS011;12231;42.782;23.388;2023-06-14T06:07:40;12.77;;;7.68;;
19589;SDS011;12231;42.782;23.388;2023-06-14T06:10:06;13.48;;;7.65;;
19589;SDS011;12231;42.782;23.388;2023-06-14T06:12:32;10.93;;;9.15;;
19589;SDS011;12231;42.782;23.388;2023-06-14T06:14:58;10.52;;;8.48;;
19589;SDS011;12231;42.782;23.388;2023-06-14T06:17:24;11.38;;;8.05;;
19589;SDS011;12231;42.782;23.388;2023-06-14T06:19:50;10.70;;;7.60;;
19589;SDS011;12231;42.782;23.388;2023-06-14T06:22:16;9.00;;;6.90;;
19589;SDS011;12231;42.782;23.388;2023-06-14T06:24:42;8.10;;;6.63;;
19589;SDS011;12231;42.782;23.388;2023-06-14T06:27:07;10.32;;;7.60;;
19589;SDS011;12231;42.782;23.388;2023-06-14T06:29:37;8.80;;;6.60;;
19589;SDS011;12231;42.782;23.388;2023-06-14T06:32:03;7.75;;;5.82;;
19589;SDS011;12231;42.782;23.388;2023-06-14T06:34:28;7.82;;;6.05;;
19589;SDS011;12231;42.782;23.388;2023-06-14T06:36:54;9.07;;;6.90;;
19589;SDS011;12231;42.782;23.388;2023-06-14T06:39:20;7.10;;;5.85;;
19589;SDS011;12231;42.782;23.388;2023-06-14T06:41:45;9.43;;;6.95;;
19589;SDS011;12231;42.782;23.388;2023-06-14T06:44:11;7.30;;;5.78;;
19589;SDS011;12231;42.782;23.388;2023-06-14T06:46:37;6.95;;;5.82;;
19589;SDS011;12231;42.782;23.388;2023-06-14T06:49:06;5.25;;;4.65;;
19589;SDS011;12231;42.782;23.388;2023-06-14T06:51:32;9.13;;;5.95;;
19589;SDS011;12231;42.782;23.388;2023-06-14T06:53:57;5.93;;;4.60;;
19589;SDS011;12231;42.782;23.388;2023-06-14T06:56:23;5.05;;;4.40;;
19589;SDS011;12231;42.782;23.388;2023-06-14T06:58:49;5.93;;;5.25;;
19589;SDS011;12231;42.782;23.388;2023-06-14T07:01:15;7.80;;;5.63;;
19589;SDS011;12231;42.782;23.388;2023-06-14T07:03:41;7.00;;;4.45;;
19589;SDS011;12231;42.782;23.388;2023-06-14T07:06:06;8.38;;;5.28;;
19589;SDS011;12231;42.782;23.388;2023-06-14T07:08:32;6.30;;;5.05;;
19589;SDS011;12231;42.782;23.388;2023-06-14T07:10:57;7.35;;;4.80;;
19589;SDS011;12231;42.782;23.388;2023-06-14T07:13:23;7.93;;;6.05;;
19589;SDS011;12231;42.782;23.388;2023-06-14T07:15:48;7.20;;;6.10;;
19589;SDS011;12231;42.782;23.388;2023-06-14T07:18:13;8.38;;;6.53;;
19589;SDS011;12231;42.782;23.388;2023-06-14T07:20:39;9.40;;;6.93;;
19589;SDS011;12231;42.782;23.388;2023-06-14T07:23:05;8.90;;;6.60;;
19589;SDS011;12231;42.782;23.388;2023-06-14T07:25:30;9.60;;;7.30;;
19589;SDS011;12231;42.782;23.388;2023-06-14T07:27:56;9.05;;;7.03;;
19589;SDS011;12231;42.782;23.388;2023-06-14T07:30:22;11.05;;;8.13;;
19589;SDS011;12231;42.782;23.388;2023-06-14T07:32:51;10.80;;;7.53;;
19589;SDS011;12231;42.782;23.388;2023-06-14T07:35:17;8.88;;;6.93;;
19589;SDS011;12231;42.782;23.388;2023-06-14T07:37:43;10.32;;;7.88;;
19589;SDS011;12231;42.782;23.388;2023-06-14T07:40:08;9.90;;;8.40;;
19589;SDS011;12231;42.782;23.388;2023-06-14T07:42:35;12.07;;;8.13;;
19589;SDS011;12231;42.782;23.388;2023-06-14T07:45:01;9.90;;;7.95;;
19589;SDS011;12231;42.782;23.388;2023-06-14T07:47:27;9.30;;;6.85;;
19589;SDS011;12231;42.782;23.388;2023-06-14T07:49:53;11.60;;;7.65;;
19589;SDS011;12231;42.782;23.388;2023-06-14T07:52:18;8.80;;;7.68;;
19589;SDS011;12231;42.782;23.388;2023-06-14T07:54:43;8.27;;;7.32;;
19589;SDS011;12231;42.782;23.388;2023-06-14T07:57:09;8.45;;;7.43;;
19589;SDS011;12231;42.782;23.388;2023-06-14T07:59:35;8.02;;;7.22;;
19589;SDS011;12231;42.782;23.388;2023-06-14T08:02:00;7.25;;;6.45;;
19589;SDS011;12231;42.782;23.388;2023-06-14T08:04:26;8.32;;;6.40;;
19589;SDS011;12231;42.782;23.388;2023-06-14T08:06:51;6.88;;;6.03;;
19589;SDS011;12231;42.782;23.388;2023-06-14T08:09:17;7.55;;;6.85;;
19589;SDS011;12231;42.782;23.388;2023-06-14T08:11:42;7.05;;;6.35;;
19589;SDS011;12231;42.782;23.388;2023-06-14T08:14:08;8.07;;;7.20;;
19589;SDS011;12231;42.782;23.388;2023-06-14T08:16:33;6.90;;;6.28;;
19589;SDS011;12231;42.782;23.388;2023-06-14T08:18:59;7.38;;;6.10;;
19589;SDS011;12231;42.782;23.388;2023-06-14T08:21:24;6.65;;;6.00;;
19589;SDS011;12231;42.782;23.388;2023-06-14T08:23:52;7.00;;;6.32;;
19589;SDS011;12231;42.782;23.388;2023-06-14T08:26:18;7.95;;;6.97;;
19589;SDS011;12231;42.782;23.388;2023-06-14T08:28:43;6.05;;;5.43;;
19589;SDS011;12231;42.782;23.388;2023-06-14T08:31:09;7.10;;;5.93;;
19589;SDS011;12231;42.782;23.388;2023-06-14T08:33:34;7.20;;;5.78;;
19589;SDS011;12231;42.782;23.388;2023-06-14T08:35:59;7.65;;;6.85;;
19589;SDS011;12231;42.782;23.388;2023-06-14T08:38:25;6.68;;;5.97;;
19589;SDS011;12231;42.782;23.388;2023-06-14T08:40:51;9.32;;;5.97;;
19589;SDS011;12231;42.782;23.388;2023-06-14T08:43:21;8.45;;;6.03;;
19589;SDS011;12231;42.782;23.388;2023-06-14T08:45:47;8.02;;;6.70;;
19589;SDS011;12231;42.782;23.388;2023-06-14T08:48:15;7.95;;;7.10;;
19589;SDS011;12231;42.782;23.388;2023-06-14T08:50:42;7.65;;;6.85;;
19589;SDS011;12231;42.782;23.388;2023-06-14T08:53:11;8.52;;;6.30;;
19589;SDS011;12231;42.782;23.388;2023-06-14T08:55:44;5.15;;;4.65;;
19589;SDS011;12231;42.782;23.388;2023-06-14T08:58:10;6.28;;;5.68;;
19589;SDS011;12231;42.782;23.388;2023-06-14T09:00:39;6.63;;;6.03;;
19589;SDS011;12231;42.782;23.388;2023-06-14T09:03:06;6.97;;;6.30;;
19589;SDS011;12231;42.782;23.388;2023-06-14T09:05:38;5.95;;;5.13;;
19589;SDS011;12231;42.782;23.388;2023-06-14T09:08:03;5.95;;;5.30;;
19589;SDS011;12231;42.782;23.388;2023-06-14T09:10:30;5.75;;;5.25;;
19589;SDS011;12231;42.782;23.388;2023-06-14T09:12:58;5.50;;;5.00;;
19589;SDS011;12231;42.782;23.388;2023-06-14T09:15:26;4.72;;;4.30;;
19589;SDS011;12231;42.782;23.388;2023-06-14T09:17:51;5.60;;;5.10;;
19589;SDS011;12231;42.782;23.388;2023-06-14T09:20:18;6.50;;;5.90;;
19589;SDS011;12231;42.782;23.388;2023-06-14T09:22:44;6.18;;;5.50;;
19589;SDS011;12231;42.782;23.388;2023-06-14T09:25:10;6.63;;;5.38;;
19589;SDS011;12231;42.782;23.388;2023-06-14T09:27:37;5.75;;;5.30;;
19589;SDS011;12231;42.782;23.388;2023-06-14T09:30:05;5.38;;;4.88;;
19589;SDS011;12231;42.782;23.388;2023-06-14T09:32:36;5.35;;;4.85;;
19589;SDS011;12231;42.782;23.388;2023-06-14T09:35:03;4.85;;;4.45;;
19589;SDS011;12231;42.782;23.388;2023-06-14T09:37:32;4.88;;;4.47;;
19589;SDS011;12231;42.782;23.388;2023-06-14T09:39:58;4.60;;;4.28;;
19589;SDS011;12231;42.782;23.388;2023-06-14T09:42:24;5.20;;;4.65;;
19589;SDS011;12231;42.782;23.388;2023-06-14T09:44:53;5.20;;;4.68;;
19589;SDS011;12231;42.782;23.388;2023-06-14T09:47:20;7.05;;;5.25;;
19589;SDS011;12231;42.782;23.388;2023-06-14T09:49:47;4.68;;;4.28;;
19589;SDS011;12231;42.782;23.388;2023-06-14T09:52:16;5.22;;;4.82;;
19589;SDS011;12231;42.782;23.388;2023-06-14T09:54:43;7.80;;;5.22;;
19589;SDS011;12231;42.782;23.388;2023-06-14T09:57:14;5.82;;;5.18;;
19589;SDS011;12231;42.782;23.388;2023-06-14T09:59:47;5.57;;;4.90;;
19589;SDS011;12231;42.782;23.388;2023-06-14T10:04:51;5.68;;;5.10;;
19589;SDS011;12231;42.782;23.388;2023-06-14T10:20:38;6.38;;;5.78;;
19589;SDS011;12231;42.782;23.388;2023-06-14T10:23:13;6.45;;;5.53;;
19589;SDS011;12231;42.782;23.388;2023-06-14T10:25:49;6.10;;;5.50;;
19589;SDS011;12231;42.782;23.388;2023-06-14T10:28:19;7.45;;;6.32;;
19589;SDS011;12231;42.782;23.388;2023-06-14T10:31:07;6.72;;;5.95;;
19589;SDS011;12231;42.782;23.388;2023-06-14T10:33:34;5.80;;;5.07;;
19589;SDS011;12231;42.782;23.388;2023-06-14T10:39:09;5.65;;;5.15;;
19589;SDS011;12231;42.782;23.388;2023-06-14T10:41:37;5.80;;;4.97;;
19589;SDS011;12231;42.782;23.388;2023-06-14T10:46:37;11.85;;;5.00;;
19589;SDS011;12231;42.782;23.388;2023-06-14T10:49:11;5.93;;;5.22;;
19589;SDS011;12231;42.782;23.388;2023-06-14T10:51:41;6.32;;;5.72;;
19589;SDS011;12231;42.782;23.388;2023-06-14T10:54:14;6.03;;;5.47;;
19589;SDS011;12231;42.782;23.388;2023-06-14T10:56:49;5.50;;;4.97;;
19589;SDS011;12231;42.782;23.388;2023-06-14T10:59:17;5.70;;;5.20;;
19589;SDS011;12231;42.782;23.388;2023-06-14T11:04:49;6.75;;;5.38;;
19589;SDS011;12231;42.782;23.388;2023-06-14T11:07:42;5.07;;;4.57;;
19589;SDS011;12231;42.782;23.388;2023-06-14T11:13:02;7.85;;;6.05;;
19589;SDS011;12231;42.782;23.388;2023-06-14T11:15:31;7.00;;;5.18;;
19589;SDS011;12231;42.782;23.388;2023-06-14T11:18:02;7.55;;;5.88;;
19589;SDS011;12231;42.782;23.388;2023-06-14T11:20:32;6.10;;;5.55;;
19589;SDS011;12231;42.782;23.388;2023-06-14T11:23:00;6.05;;;5.55;;
19589;SDS011;12231;42.782;23.388;2023-06-14T11:25:26;6.43;;;5.30;;
19589;SDS011;12231;42.782;23.388;2023-06-14T11:27:55;5.88;;;5.10;;
19589;SDS011;12231;42.782;23.388;2023-06-14T11:30:21;6.90;;;4.95;;
19589;SDS011;12231;42.782;23.388;2023-06-14T11:32:48;5.47;;;4.97;;
19589;SDS011;12231;42.782;23.388;2023-06-14T11:35:14;7.40;;;5.47;;
19589;SDS011;12231;42.782;23.388;2023-06-14T11:37:40;7.03;;;5.63;;
19589;SDS011;12231;42.782;23.388;2023-06-14T11:40:07;5.70;;;5.15;;
19589;SDS011;12231;42.782;23.388;2023-06-14T11:42:34;6.10;;;5.50;;
19589;SDS011;12231;42.782;23.388;2023-06-14T11:45:00;8.27;;;5.88;;
19589;SDS011;12231;42.782;23.388;2023-06-14T11:47:34;6.65;;;5.65;;
19589;SDS011;12231;42.782;23.388;2023-06-14T11:50:01;6.53;;;5.45;;
19589;SDS011;12231;42.782;23.388;2023-06-14T11:52:26;6.97;;;5.65;;
19589;SDS011;12231;42.782;23.388;2023-06-14T11:54:52;6.32;;;5.72;;
19589;SDS011;12231;42.782;23.388;2023-06-14T11:57:19;7.53;;;5.50;;
19589;SDS011;12231;42.782;23.388;2023-06-14T11:59:44;7.03;;;5.40;;
19589;SDS011;12231;42.782;23.388;2023-06-14T12:02:14;5.47;;;4.70;;
19589;SDS011;12231;42.782;23.388;2023-06-14T12:04:41;5.30;;;4.80;;
19589;SDS011;12231;42.782;23.388;2023-06-14T12:12:24;4.93;;;4.22;;
19589;SDS011;12231;42.782;23.388;2023-06-14T12:14:54;5.88;;;3.97;;
19589;SDS011;12231;42.782;23.388;2023-06-14T12:17:21;4.75;;;4.20;;
19589;SDS011;12231;42.782;23.388;2023-06-14T12:19:48;4.75;;;4.20;;
19589;SDS011;12231;42.782;23.388;2023-06-14T12:22:15;4.55;;;4.07;;
19589;SDS011;12231;42.782;23.388;2023-06-14T12:24:44;4.10;;;3.70;;
19589;SDS011;12231;42.782;23.388;2023-06-14T12:27:11;3.88;;;3.58;;
19589;SDS011;12231;42.782;23.388;2023-06-14T12:29:40;4.30;;;3.80;;
19589;SDS011;12231;42.782;23.388;2023-06-14T12:32:10;5.25;;;4.43;;
19589;SDS011;12231;42.782;23.388;2023-06-14T12:34:36;5.10;;;4.45;;
19589;SDS011;12231;42.782;23.388;2023-06-14T12:37:01;4.65;;;4.22;;
19589;SDS011;12231;42.782;23.388;2023-06-14T12:39:29;4.85;;;4.40;;
19589;SDS011;12231;42.782;23.388;2023-06-14T12:41:56;4.43;;;4.03;;
19589;SDS011;12231;42.782;23.388;2023-06-14T12:44:22;6.00;;;4.65;;
19589;SDS011;12231;42.782;23.388;2023-06-14T12:46:47;4.47;;;4.03;;
19589;SDS011;12231;42.782;23.388;2023-06-14T12:49:13;4.68;;;4.18;;
19589;SDS011;12231;42.782;23.388;2023-06-14T12:51:39;4.90;;;4.40;;
19589;SDS011;12231;42.782;23.388;2023-06-14T12:54:05;4.18;;;3.70;;
19589;SDS011;12231;42.782;23.388;2023-06-14T12:56:31;4.43;;;4.03;;
19589;SDS011;12231;42.782;23.388;2023-06-14T12:58:58;6.40;;;3.30;;
19589;SDS011;12231;42.782;23.388;2023-06-14T13:01:23;4.20;;;3.80;;
19589;SDS011;12231;42.782;23.388;2023-06-14T13:03:49;4.00;;;3.60;;
19589;SDS011;12231;42.782;23.388;2023-06-14T13:06:16;4.82;;;3.40;;
19589;SDS011;12231;42.782;23.388;2023-06-14T13:08:42;5.25;;;3.55;;
19589;SDS011;12231;42.782;23.388;2023-06-14T13:11:08;4.18;;;3.78;;
19589;SDS011;12231;42.782;23.388;2023-06-14T13:13:33;3.70;;;3.22;;
19589;SDS011;12231;42.782;23.388;2023-06-14T13:15:59;3.78;;;3.28;;
19589;SDS011;12231;42.782;23.388;2023-06-14T13:18:25;5.13;;;3.45;;
19589;SDS011;12231;42.782;23.388;2023-06-14T13:20:50;3.70;;;3.40;;
19589;SDS011;12231;42.782;23.388;2023-06-14T13:23:16;4.47;;;4.03;;
19589;SDS011;12231;42.782;23.388;2023-06-14T13:25:42;5.57;;;3.60;;
19589;SDS011;12231;42.782;23.388;2023-06-14T13:28:08;6.18;;;4.30;;
19589;SDS011;12231;42.782;23.388;2023-06-14T13:30:33;4.88;;;3.90;;
19589;SDS011;12231;42.782;23.388;2023-06-14T13:32:59;7.20;;;3.78;;
19589;SDS011;12231;42.782;23.388;2023-06-14T13:35:25;4.93;;;4.20;;
19589;SDS011;12231;42.782;23.388;2023-06-14T13:37:50;6.05;;;3.92;;
19589;SDS011;12231;42.782;23.388;2023-06-14T13:40:16;5.30;;;3.58;;
19589;SDS011;12231;42.782;23.388;2023-06-14T13:42:42;7.45;;;3.78;;
19589;SDS011;12231;42.782;23.388;2023-06-14T13:45:08;7.40;;;4.20;;
19589;SDS011;12231;42.782;23.388;2023-06-14T13:47:35;5.88;;;3.72;;
19589;SDS011;12231;42.782;23.388;2023-06-14T13:50:00;4.72;;;3.83;;
19589;SDS011;12231;42.782;23.388;2023-06-14T13:52:26;4.18;;;3.53;;
19589;SDS011;12231;42.782;23.388;2023-06-14T13:54:52;3.75;;;3.45;;
19589;SDS011;12231;42.782;23.388;2023-06-14T13:57:17;5.47;;;4.85;;
19589;SDS011;12231;42.782;23.388;2023-06-14T13:59:43;6.50;;;4.78;;
19589;SDS011;12231;42.782;23.388;2023-06-14T14:02:11;9.90;;;4.85;;
19589;SDS011;12231;42.782;23.388;2023-06-14T14:04:37;8.70;;;4.72;;
19589;SDS011;12231;42.782;23.388;2023-06-14T14:07:04;6.85;;;5.20;;
19589;SDS011;12231;42.782;23.388;2023-06-14T14:09:31;6.10;;;4.88;;
19589;SDS011;12231;42.782;23.388;2023-06-14T14:12:00;8.38;;;5.55;;
19589;SDS011;12231;42.782;23.388;2023-06-14T14:14:27;8.27;;;5.35;;
19589;SDS011;12231;42.782;23.388;2023-06-14T14:16:53;6.32;;;4.68;;
19589;SDS011;12231;42.782;23.388;2023-06-14T14:19:19;5.72;;;4.80;;
19589;SDS011;12231;42.782;23.388;2023-06-14T14:21:48;4.82;;;3.90;;
19589;SDS011;12231;42.782;23.388;2023-06-14T14:24:13;4.63;;;3.90;;
19589;SDS011;12231;42.782;23.388;2023-06-14T14:26:39;5.03;;;3.60;;
19589;SDS011;12231;42.782;23.388;2023-06-14T14:29:05;5.95;;;4.50;;
19589;SDS011;12231;42.782;23.388;2023-06-14T14:31:31;6.28;;;4.80;;
19589;SDS011;12231;42.782;23.388;2023-06-14T14:33:56;7.70;;;5.47;;
19589;SDS011;12231;42.782;23.388;2023-06-14T14:36:21;8.43;;;4.90;;
19589;SDS011;12231;42.782;23.388;2023-06-14T14:38:47;6.82;;;5.03;;
19589;SDS011;12231;42.782;23.388;2023-06-14T14:41:13;7.30;;;4.80;;
19589;SDS011;12231;42.782;23.388;2023-06-14T14:43:38;5.80;;;4.57;;
19589;SDS011;12231;42.782;23.388;2023-06-14T14:46:04;5.63;;;4.68;;
19589;SDS011;12231;42.782;23.388;2023-06-14T14:48:29;8.20;;;4.22;;
19589;SDS011;12231;42.782;23.388;2023-06-14T14:50:54;6.80;;;4.50;;
19589;SDS011;12231;42.782;23.388;2023-06-14T14:53:20;6.32;;;4.35;;
19589;SDS011;12231;42.782;23.388;2023-06-14T14:55:45;5.35;;;3.65;;
19589;SDS011;12231;42.782;23.388;2023-06-14T14:58:12;4.25;;;3.90;;
19589;SDS011;12231;42.782;23.388;2023-06-14T15:00:38;4.22;;;2.95;;
19589;SDS011;12231;42.782;23.388;2023-06-14T15:03:03;5.47;;;3.45;;
19589;SDS011;12231;42.782;23.388;2023-06-14T15:05:28;5.75;;;3.95;;